Time;durP1;ratioP1;P1;durP2;ratioP2;P2;SDS_P1;SDS_P2;PMS_P1;PMS_P2;Temp;Humidity;BMP_temperature;BMP_pressure;BME280_temperature;BME280_humidity;BME280_pressure;Samples;Min_cycle;Max_cycle;Signal;HPM_P1;HPM_P2
2022/10/22 00:01:09;;;;;;;38.35;21.30;;;;;;;;;;6333154;22;20098;-58
2022/10/22 00:03:36;;;;;;;35.90;20.90;;;;;;;;;;6331452;22;20520;-59
2022/10/22 00:06:10;;;;;;;35.50;21.77;;;;;;;;;;6332054;22;20446;-59
2022/10/22 00:08:37;;;;;;;32.45;22.05;;;;;;;;;;6332697;22;20022;-63
2022/10/22 00:11:13;;;;;;;38.95;22.08;;;;;;;;;;6331912;22;20080;-63
2022/10/22 00:13:48;;;;;;;37.95;22.00;;;;;;;;;;6330622;22;20029;-63
2022/10/22 00:16:15;;;;;;;37.22;20.55;;;;;;;;;;6332812;22;20015;-63
2022/10/22 00:18:42;;;;;;;38.22;22.15;;;;;;;;;;6332993;22;20065;-63
2022/10/22 00:21:24;;;;;;;42.25;22.98;;;;;;;;;;6332362;22;20029;-62
2022/10/22 00:23:51;;;;;;;33.13;20.27;;;;;;;;;;6332690;22;20543;-61
2022/10/22 00:26:25;;;;;;;33.65;21.23;;;;;;;;;;6332169;22;20131;-61
2022/10/22 00:28:53;;;;;;;31.83;20.73;;;;;;;;;;6331346;22;20050;-61
2022/10/22 00:31:20;;;;;;;38.03;21.67;;;;;;;;;;6332912;22;20558;-61
2022/10/22 00:33:54;;;;;;;34.92;22.00;;;;;;;;;;6333039;22;20101;-61
2022/10/22 00:36:21;;;;;;;42.78;22.70;;;;;;;;;;6332054;22;20102;-61
2022/10/22 00:38:49;;;;;;;35.10;21.13;;;;;;;;;;6331779;22;20022;-61
2022/10/22 00:41:22;;;;;;;43.95;24.08;;;;;;;;;;6332746;22;20468;-61
2022/10/22 00:43:54;;;;;;;39.95;21.38;;;;;;;;;;6331310;22;20023;-59
2022/10/22 00:46:21;;;;;;;35.05;20.35;;;;;;;;;;6332064;22;20106;-62
2022/10/22 00:48:56;;;;;;;38.38;20.30;;;;;;;;;;6331304;22;20022;-61
2022/10/22 00:51:25;;;;;;;37.33;21.20;;;;;;;;;;6331756;22;20098;-63
2022/10/22 00:54:04;;;;;;;37.15;22.50;;;;;;;;;;6332500;22;20025;-63
2022/10/22 00:56:31;;;;;;;39.05;21.88;;;;;;;;;;6330824;22;20109;-61
2022/10/22 00:59:05;;;;;;;34.65;21.63;;;;;;;;;;6332785;22;20033;-63
2022/10/22 01:01:37;;;;;;;36.25;21.45;;;;;;;;;;6332239;22;20025;-63
2022/10/22 01:04:05;;;;;;;37.63;22.48;;;;;;;;;;6331849;22;20054;-61
2022/10/22 01:06:39;;;;;;;33.97;21.08;;;;;;;;;;6332903;22;20021;-60
2022/10/22 01:09:18;;;;;;;37.38;21.70;;;;;;;;;;6332851;22;20027;-59
2022/10/22 01:11:55;;;;;;;;;;;;;;;;;;6332265;22;20512;-59
2022/10/22 01:14:22;;;;;;;34.55;20.00;;;;;;;;;;6331331;22;20291;-59
2022/10/22 01:16:52;;;;;;;40.08;22.23;;;;;;;;;;6330781;22;20097;-60
2022/10/22 01:19:26;;;;;;;36.53;20.30;;;;;;;;;;6331683;22;20027;-59
2022/10/22 01:22:05;;;;;;;34.22;20.60;;;;;;;;;;6330344;22;20015;-61
2022/10/22 01:24:51;;;;;;;31.48;19.80;;;;;;;;;;6330194;22;20553;-59
2022/10/22 01:27:28;;;;;;;36.35;20.88;;;;;;;;;;6329330;22;20444;-58
2022/10/22 01:30:05;;;;;;;38.08;21.02;;;;;;;;;;6330717;22;20762;-59
2022/10/22 01:32:35;;;;;;;32.30;20.67;;;;;;;;;;6331169;22;20023;-59
2022/10/22 10:20:30;;;;;;;33.17;15.43;;;;;;;;;;5922968;22;7197041;-64
2022/10/22 10:23:23;;;;;;;36.35;15.52;;;;;;;;;;6203487;23;20048;-63
2022/10/22 10:26:16;;;;;;;34.65;16.48;;;;;;;;;;6209102;23;20020;-63
2022/10/22 10:28:46;;;;;;;28.13;15.63;;;;;;;;;;6205368;23;20031;-63
2022/10/22 10:31:23;;;;;;;30.23;14.23;;;;;;;;;;6209617;23;20024;-63
2022/10/22 10:34:02;;;;;;;30.45;15.13;;;;;;;;;;6208091;23;20044;-58
2022/10/22 10:36:36;;;;;;;34.25;14.63;;;;;;;;;;6208351;23;20043;-49
2022/10/22 10:39:06;;;;;;;27.85;14.27;;;;;;;;;;6209230;23;20541;-51
2022/10/22 10:41:40;;;;;;;27.75;14.38;;;;;;;;;;6208570;23;20103;-54
2022/10/22 10:44:26;;;;;;;25.95;13.32;;;;;;;;;;6208335;23;20470;-50
2022/10/22 10:47:23;;;;;;;25.17;14.15;;;;;;;;;;6207140;23;20023;-49
2022/10/22 10:49:53;;;;;;;23.92;12.82;;;;;;;;;;6206493;23;20024;-50
2022/10/22 10:52:33;;;;;;;25.02;13.73;;;;;;;;;;6208056;23;20520;-49
2022/10/22 10:55:18;;;;;;;34.40;14.32;;;;;;;;;;6208446;23;20046;-58
2022/10/22 10:58:01;;;;;;;29.83;14.32;;;;;;;;;;6208364;23;20031;-64
2022/10/22 11:00:32;;;;;;;37.50;14.07;;;;;;;;;;6209786;23;20025;-64
2022/10/22 11:03:17;;;;;;;25.38;13.38;;;;;;;;;;6210813;23;20107;-64
2022/10/22 11:06:06;;;;;;;27.60;13.95;;;;;;;;;;6208193;23;20455;-64
2022/10/22 11:08:44;;;;;;;33.25;15.98;;;;;;;;;;6208582;23;20622;-64
2022/10/22 11:11:31;;;;;;;23.80;13.63;;;;;;;;;;6208440;23;20020;-59
2022/10/22 11:13:59;;;;;;;30.35;14.50;;;;;;;;;;6209506;23;20031;-56
2022/10/22 11:16:52;;;;;;;29.08;15.15;;;;;;;;;;6208857;23;20027;-61
2022/10/22 11:19:42;;;;;;;31.77;15.07;;;;;;;;;;6204214;23;20031;-63
2022/10/22 11:22:32;;;;;;;29.45;14.90;;;;;;;;;;6206724;23;20032;-63
2022/10/22 11:25:14;;;;;;;27.75;14.40;;;;;;;;;;6207199;23;20501;-62
2022/10/22 11:28:04;;;;;;;26.88;14.57;;;;;;;;;;6180553;23;20038;-62
2022/10/22 11:30:37;;;;;;;26.10;14.70;;;;;;;;;;6208479;23;20021;-60
2022/10/22 11:33:15;;;;;;;35.08;14.32;;;;;;;;;;6208693;23;20063;-60
2022/10/22 11:35:44;;;;;;;26.20;14.38;;;;;;;;;;6209142;23;20025;-60
2022/10/22 11:38:21;;;;;;;30.20;15.55;;;;;;;;;;6208586;23;20454;-59
2022/10/22 11:40:58;;;;;;;31.02;15.50;;;;;;;;;;6208399;23;20294;-60
2022/10/22 11:43:34;;;;;;;27.80;14.32;;;;;;;;;;6209435;23;20086;-60
2022/10/22 11:46:07;;;;;;;38.03;15.90;;;;;;;;;;6208928;23;20103;-60
2022/10/22 11:48:41;;;;;;;41.70;16.05;;;;;;;;;;6209667;23;20024;-59
2022/10/22 11:51:27;;;;;;;34.47;15.73;;;;;;;;;;6209475;23;20034;-62
2022/10/22 11:54:21;;;;;;;36.13;17.00;;;;;;;;;;6209099;23;20030;-61
2022/10/22 11:56:52;;;;;;;31.75;16.40;;;;;;;;;;6179263;23;20020;-63
2022/10/22 11:59:37;;;;;;;32.22;16.80;;;;;;;;;;6207369;23;20441;-62
2022/10/22 12:02:22;;;;;;;30.10;14.93;;;;;;;;;;6209218;23;20348;-62
2022/10/22 12:05:16;;;;;;;28.48;15.32;;;;;;;;;;6208038;23;20059;-62
2022/10/22 12:07:55;;;;;;;27.52;15.50;;;;;;;;;;6209158;23;20096;-63
2022/10/22 12:10:34;;;;;;;27.25;15.40;;;;;;;;;;6209775;23;20050;-64
2022/10/22 12:13:04;;;;;;;25.45;14.50;;;;;;;;;;6208575;23;20088;-53
2022/10/22 12:15:48;;;;;;;32.70;15.57;;;;;;;;;;6208645;23;20447;-52
2022/10/22 12:18:27;;;;;;;29.98;15.05;;;;;;;;;;6207550;23;20023;-55
2022/10/22 12:21:08;;;;;;;28.60;14.65;;;;;;;;;;6209197;23;20052;-52
2022/10/22 12:23:35;;;;;;;33.42;15.45;;;;;;;;;;6208144;23;20021;-49
2022/10/22 12:26:25;;;;;;;28.17;15.38;;;;;;;;;;6207141;23;20023;-53
2022/10/22 12:28:57;;;;;;;28.13;14.48;;;;;;;;;;6182776;23;20529;-64
2022/10/22 12:31:35;;;;;;;37.60;17.23;;;;;;;;;;6209892;23;20035;-54
2022/10/22 12:34:03;;;;;;;35.58;18.13;;;;;;;;;;6206372;23;20027;-51
2022/10/22 12:36:38;;;;;;;38.05;19.27;;;;;;;;;;6208940;23;20467;-52
2022/10/22 12:39:10;;;;;;;41.28;20.25;;;;;;;;;;6209587;23;20032;-51
2022/10/22 12:41:44;;;;;;;45.28;20.08;;;;;;;;;;6209277;23;20414;-50
2022/10/22 12:44:13;;;;;;;35.97;18.23;;;;;;;;;;6207146;23;20103;-56
2022/10/22 12:46:48;;;;;;;36.97;19.75;;;;;;;;;;6206413;23;20027;-58
2022/10/22 12:49:23;;;;;;;40.22;19.98;;;;;;;;;;6208887;23;20043;-62
2022/10/22 12:52:00;;;;;;;37.45;19.30;;;;;;;;;;6207961;23;20043;-59
2022/10/22 12:54:28;;;;;;;36.45;19.60;;;;;;;;;;6208528;23;20027;-59
2022/10/22 12:57:02;;;;;;;32.50;18.50;;;;;;;;;;6207717;23;20500;-59
2022/10/22 12:59:29;;;;;;;;;;;;;;;;;;6209997;23;20092;-59
2022/10/22 13:02:04;;;;;;;28.95;17.67;;;;;;;;;;6206505;23;19951;-59
2022/10/22 13:04:37;;;;;;;36.00;19.05;;;;;;;;;;6209146;23;20071;-59
2022/10/22 13:07:13;;;;;;;30.77;17.55;;;;;;;;;;6205574;23;20023;-59
2022/10/22 13:09:54;;;;;;;31.77;16.63;;;;;;;;;;6208769;23;20536;-59
2022/10/22 13:12:43;;;;;;;29.52;16.27;;;;;;;;;;6208372;23;20112;-59
2022/10/22 13:15:21;;;;;;;35.25;19.13;;;;;;;;;;6209940;23;20027;-59
2022/10/22 13:18:28;;;;;;;30.35;17.42;;;;;;;;;;6208131;23;20112;-59
2022/10/22 13:20:57;;;;;;;39.92;17.85;;;;;;;;;;6151221;23;20025;-58
2022/10/22 13:23:33;;;;;;;52.90;20.10;;;;;;;;;;6178549;23;20049;-59
2022/10/22 13:26:02;;;;;;;31.17;18.40;;;;;;;;;;6177127;23;20592;-58
2022/10/22 13:28:35;;;;;;;33.47;17.10;;;;;;;;;;6179564;23;20096;-60
2022/10/22 13:31:11;;;;;;;31.48;17.55;;;;;;;;;;6178979;23;20039;-60
2022/10/22 13:33:46;;;;;;;35.53;18.42;;;;;;;;;;6174831;23;20415;-60
2022/10/22 13:36:14;;;;;;;42.42;20.75;;;;;;;;;;6178938;23;20025;-60
2022/10/22 13:38:48;;;;;;;48.33;22.17;;;;;;;;;;6177419;23;20271;-61
2022/10/22 13:41:23;;;;;;;46.35;22.30;;;;;;;;;;6178630;23;20036;-60
2022/10/22 13:43:56;;;;;;;48.95;23.00;;;;;;;;;;6177729;23;20072;-64
2022/10/22 13:46:25;;;;;;;37.75;20.90;;;;;;;;;;6152750;23;20021;-49
2022/10/22 13:48:59;;;;;;;42.97;22.08;;;;;;;;;;6178248;23;20105;-58
2022/10/22 13:51:33;;;;;;;42.97;21.55;;;;;;;;;;6177563;23;20539;-58
2022/10/22 13:54:14;;;;;;;41.60;21.48;;;;;;;;;;6178182;23;20027;-58
2022/10/22 13:56:41;;;;;;;40.13;20.33;;;;;;;;;;6179165;23;20027;-59
2022/10/22 13:59:15;;;;;;;35.35;20.30;;;;;;;;;;6178093;23;20031;-58
2022/10/22 14:01:48;;;;;;;39.13;20.23;;;;;;;;;;6175457;23;20545;-58
2022/10/22 14:04:22;;;;;;;35.78;20.40;;;;;;;;;;6177268;23;20367;-60
2022/10/22 14:06:57;;;;;;;34.63;20.75;;;;;;;;;;6152291;23;20021;-60
2022/10/22 14:09:30;;;;;;;34.92;19.13;;;;;;;;;;6178528;23;20024;-60
2022/10/22 14:11:57;;;;;;;36.35;18.92;;;;;;;;;;6179304;23;20021;-60
2022/10/22 14:14:25;;;;;;;38.95;20.80;;;;;;;;;;6176022;23;20023;-60
2022/10/22 14:16:58;;;;;;;38.03;21.15;;;;;;;;;;6175362;23;20358;-60
2022/10/22 14:19:32;;;;;;;34.28;19.80;;;;;;;;;;6190287;23;20029;-60
2022/10/22 14:22:07;;;;;;;43.42;22.00;;;;;;;;;;6204731;23;20423;-59
2022/10/22 14:24:34;;;;;;;37.63;20.63;;;;;;;;;;6205880;23;20021;-59
2022/10/22 14:27:10;;;;;;;35.05;20.42;;;;;;;;;;6203900;23;20481;-49
2022/10/22 14:29:38;;;;;;;44.55;21.23;;;;;;;;;;6204122;23;20559;-49
2022/10/22 14:32:14;;;;;;;47.17;22.13;;;;;;;;;;6201321;23;20316;-53
2022/10/22 14:34:41;;;;;;;48.88;22.45;;;;;;;;;;6206419;23;20547;-52
2022/10/22 14:37:16;;;;;;;47.28;22.15;;;;;;;;;;6205035;23;20082;-49
2022/10/22 14:39:53;;;;;;;54.95;23.85;;;;;;;;;;6206168;23;20023;-50
2022/10/22 14:42:20;;;;;;;55.40;23.88;;;;;;;;;;6208724;23;20536;-64
2022/10/22 14:44:54;;;;;;;71.63;25.67;;;;;;;;;;6209743;23;20083;-58
2022/10/22 14:47:21;;;;;;;65.15;26.55;;;;;;;;;;6207364;23;20031;-59
2022/10/22 14:49:48;;;;;;;61.72;24.80;;;;;;;;;;6210182;23;20028;-59
2022/10/22 14:52:22;;;;;;;63.55;26.48;;;;;;;;;;6207723;23;20016;-59
2022/10/22 14:54:49;;;;;;;72.05;29.02;;;;;;;;;;6209002;23;20087;-59
2022/10/22 14:57:27;;;;;;;72.70;28.05;;;;;;;;;;6210152;23;20331;-59
2022/10/22 14:59:54;;;;;;;60.40;27.05;;;;;;;;;;6210511;23;20040;-62
2022/10/22 15:02:21;;;;;;;73.80;26.85;;;;;;;;;;6207576;23;20024;-62
2022/10/22 15:04:55;;;;;;;81.50;29.38;;;;;;;;;;6208100;23;20024;-50
2022/10/22 15:07:23;;;;;;;75.40;27.30;;;;;;;;;;6210468;23;20104;-52
2022/10/22 15:09:57;;;;;;;81.07;28.20;;;;;;;;;;6208367;23;20031;-51
2022/10/22 15:12:25;;;;;;;91.10;29.67;;;;;;;;;;6209528;23;20036;-54
2022/10/22 15:14:52;;;;;;;78.00;28.58;;;;;;;;;;6203601;23;20028;-55
2022/10/22 15:17:25;;;;;;;90.30;30.48;;;;;;;;;;6209605;23;20025;-51
2022/10/22 15:20:02;;;;;;;86.38;30.02;;;;;;;;;;6197897;23;20016;-49
2022/10/22 15:22:36;;;;;;;88.22;30.73;;;;;;;;;;6207700;23;20030;-62
2022/10/22 15:25:06;;;;;;;87.38;30.58;;;;;;;;;;6205008;23;20039;-63
2022/10/22 15:27:33;;;;;;;120.15;33.40;;;;;;;;;;6205895;23;20025;-62
2022/10/22 15:30:07;;;;;;;112.25;32.42;;;;;;;;;;6207130;23;20021;-62
2022/10/22 15:32:34;;;;;;;125.47;33.22;;;;;;;;;;6206810;23;20043;-62
2022/10/22 15:35:09;;;;;;;116.90;30.60;;;;;;;;;;6207955;23;20038;-62
2022/10/22 15:37:37;;;;;;;96.38;32.45;;;;;;;;;;6206360;23;20529;-62
2022/10/22 15:40:07;;;;;;;105.53;32.08;;;;;;;;;;6208450;23;20032;-49
2022/10/22 15:42:40;;;;;;;105.70;32.08;;;;;;;;;;6209935;23;20027;-59
2022/10/22 15:45:08;;;;;;;97.45;31.67;;;;;;;;;;6209763;23;20040;-59
2022/10/22 15:47:46;;;;;;;104.53;33.22;;;;;;;;;;6209665;23;20031;-59
2022/10/22 15:50:15;;;;;;;82.35;32.08;;;;;;;;;;6209984;23;20027;-60
2022/10/22 15:52:42;;;;;;;85.45;32.15;;;;;;;;;;6209356;23;20430;-60
2022/10/22 15:55:15;;;;;;;149.32;35.63;;;;;;;;;;6207590;23;20355;-59
2022/10/22 15:57:46;;;;;;;143.88;35.78;;;;;;;;;;6206204;23;20023;-60
2022/10/22 16:00:20;;;;;;;241.20;41.00;;;;;;;;;;6207667;23;20362;-53
2022/10/22 16:02:47;;;;;;;196.30;35.17;;;;;;;;;;6202163;23;20083;-59
2022/10/22 16:05:20;;;;;;;195.43;37.42;;;;;;;;;;6205830;23;20514;-60
2022/10/22 16:07:48;;;;;;;289.33;39.22;;;;;;;;;;6205645;23;20060;-60
2022/10/22 16:10:15;;;;;;;157.13;34.72;;;;;;;;;;6205926;23;20107;-61
2022/10/22 16:12:50;;;;;;;337.02;40.53;;;;;;;;;;6205189;23;20024;-60
2022/10/22 16:15:17;;;;;;;460.95;45.13;;;;;;;;;;6205124;23;20063;-60
2022/10/22 16:17:51;;;;;;;442.88;43.70;;;;;;;;;;6206692;23;20481;-58
2022/10/22 16:20:31;;;;;;;356.10;43.65;;;;;;;;;;6205428;23;20021;-59
2022/10/22 16:23:04;;;;;;;486.63;48.40;;;;;;;;;;6204263;23;20100;-59
2022/10/22 16:25:41;;;;;;;358.10;44.55;;;;;;;;;;6206057;23;20560;-59
2022/10/22 16:28:14;;;;;;;415.17;46.20;;;;;;;;;;6205018;23;20034;-59
2022/10/22 16:30:42;;;;;;;370.75;47.38;;;;;;;;;;6206122;23;20024;-59
2022/10/22 16:33:10;;;;;;;389.60;47.03;;;;;;;;;;6204434;23;20027;-60
2022/10/22 16:35:44;;;;;;;288.73;44.42;;;;;;;;;;6206285;23;20028;-59
2022/10/22 16:38:11;;;;;;;552.10;53.25;;;;;;;;;;6203562;23;20426;-59
2022/10/22 16:40:44;;;;;;;456.45;47.58;;;;;;;;;;6206830;23;20020;-58
2022/10/22 16:43:12;;;;;;;525.67;50.80;;;;;;;;;;6206618;23;20024;-58
2022/10/22 16:45:39;;;;;;;490.92;44.60;;;;;;;;;;6205178;23;20031;-58
2022/10/22 16:48:12;;;;;;;565.83;56.45;;;;;;;;;;6204599;23;20466;-58
2022/10/22 16:50:39;;;;;;;596.58;55.92;;;;;;;;;;6205336;23;20022;-58
2022/10/22 16:53:13;;;;;;;641.55;58.90;;;;;;;;;;6205407;23;20024;-58
2022/10/22 16:55:41;;;;;;;546.60;49.97;;;;;;;;;;6205334;23;20462;-60
2022/10/22 16:58:08;;;;;;;369.27;45.03;;;;;;;;;;6206619;23;20350;-62
2022/10/22 17:00:42;;;;;;;611.75;58.30;;;;;;;;;;6205670;23;20040;-62
2022/10/22 17:03:11;;;;;;;544.60;52.55;;;;;;;;;;6204479;23;20029;-62
2022/10/22 17:05:38;;;;;;;690.22;57.08;;;;;;;;;;6206240;23;20028;-62
2022/10/22 17:08:11;;;;;;;534.00;53.42;;;;;;;;;;6204379;23;20369;-63
2022/10/22 17:10:40;;;;;;;351.52;50.50;;;;;;;;;;6207207;23;20031;-62
2022/10/22 17:13:13;;;;;;;703.28;62.35;;;;;;;;;;6206356;23;20031;-60
2022/10/22 17:15:41;;;;;;;424.67;49.55;;;;;;;;;;6206046;23;20421;-60
2022/10/22 17:18:28;;;;;;;319.55;52.70;;;;;;;;;;6201967;23;20336;-62
2022/10/22 17:21:10;;;;;;;569.83;62.20;;;;;;;;;;6174610;23;20104;-63
2022/10/22 17:23:45;;;;;;;341.45;42.83;;;;;;;;;;6175560;23;20021;-63
2022/10/22 17:26:12;;;;;;;;;;;;;;;;;;6173472;23;20665;-62
2022/10/22 17:28:40;;;;;;;600.30;54.08;;;;;;;;;;6172174;23;19995;-63
2022/10/22 17:31:18;;;;;;;431.55;45.08;;;;;;;;;;6174472;23;20021;-63
2022/10/22 17:33:46;;;;;;;227.38;39.45;;;;;;;;;;6174507;23;20036;-60
2022/10/22 17:36:20;;;;;;;261.83;40.47;;;;;;;;;;6174747;23;20563;-49
2022/10/22 17:38:49;;;;;;;304.70;45.75;;;;;;;;;;6175188;23;20025;-51
2022/10/22 17:41:18;;;;;;;392.92;49.40;;;;;;;;;;6174956;23;20052;-52
2022/10/22 17:43:58;;;;;;;448.23;51.78;;;;;;;;;;6168694;23;20029;-53
2022/10/22 17:46:27;;;;;;;467.52;53.42;;;;;;;;;;6174626;23;20021;-52
2022/10/22 17:49:05;;;;;;;381.50;48.35;;;;;;;;;;6175791;23;20032;-52
2022/10/22 17:51:33;;;;;;;411.05;48.17;;;;;;;;;;6172615;23;20029;-54
2022/10/22 17:54:00;;;;;;;311.95;45.33;;;;;;;;;;6173735;23;20021;-62
2022/10/22 17:56:38;;;;;;;159.90;35.50;;;;;;;;;;6174171;23;20025;-60
2022/10/22 17:59:07;;;;;;;170.90;36.55;;;;;;;;;;6174466;23;20419;-60
2022/10/22 18:01:44;;;;;;;164.90;35.17;;;;;;;;;;6172711;23;20024;-60
2022/10/22 18:04:13;;;;;;;269.30;41.83;;;;;;;;;;6174832;23;20028;-60
2022/10/22 18:06:48;;;;;;;274.83;40.05;;;;;;;;;;6174348;23;20340;-61
2022/10/22 18:09:16;;;;;;;494.35;49.15;;;;;;;;;;6174675;23;20025;-60
2022/10/22 18:11:45;;;;;;;290.65;40.63;;;;;;;;;;6174963;23;20119;-59
2022/10/22 18:14:21;;;;;;;152.90;33.65;;;;;;;;;;6174560;23;20025;-58
2022/10/22 18:16:48;;;;;;;159.43;32.58;;;;;;;;;;6176003;23;20033;-58
2022/10/22 18:19:29;;;;;;;392.15;45.10;;;;;;;;;;6186831;23;20046;-58
2022/10/22 18:21:59;;;;;;;217.50;37.45;;;;;;;;;;6205576;23;20103;-58
2022/10/22 18:24:37;;;;;;;299.42;39.22;;;;;;;;;;6206815;23;20060;-58
2022/10/22 18:27:05;;;;;;;196.43;36.90;;;;;;;;;;6203762;23;20104;-59
2022/10/22 18:29:32;;;;;;;324.02;42.33;;;;;;;;;;6206757;23;20027;-60
2022/10/22 18:32:06;;;;;;;586.05;53.97;;;;;;;;;;6207572;23;20107;-49
2022/10/22 18:34:39;;;;;;;148.20;34.03;;;;;;;;;;6204953;23;20470;-59
2022/10/22 18:37:12;;;;;;;204.68;34.65;;;;;;;;;;6206687;23;20025;-59
2022/10/22 18:39:40;;;;;;;405.98;44.00;;;;;;;;;;6179282;23;20024;-59
2022/10/22 18:42:07;;;;;;;315.92;43.28;;;;;;;;;;6179592;23;20025;-59
2022/10/22 18:44:41;;;;;;;220.38;36.72;;;;;;;;;;6207062;23;20111;-62
2022/10/22 18:47:10;;;;;;;188.35;34.47;;;;;;;;;;6206830;23;20478;-59
2022/10/22 18:49:44;;;;;;;308.90;35.97;;;;;;;;;;6203602;23;20100;-49
2022/10/22 18:52:12;;;;;;;356.08;39.70;;;;;;;;;;6207254;23;20445;-58
2022/10/22 18:54:39;;;;;;;256.85;35.78;;;;;;;;;;6206971;23;20025;-59
2022/10/22 18:57:13;;;;;;;233.90;36.15;;;;;;;;;;6204515;23;20493;-59
2022/10/22 18:59:40;;;;;;;179.98;34.10;;;;;;;;;;6208142;23;20031;-59
2022/10/22 19:02:15;;;;;;;150.13;34.03;;;;;;;;;;6182121;23;20020;-58
2022/10/22 19:04:43;;;;;;;149.00;33.95;;;;;;;;;;6204767;23;20020;-58
2022/10/22 19:07:11;;;;;;;174.00;36.78;;;;;;;;;;6206713;23;20028;-59
2022/10/22 19:09:45;;;;;;;156.57;37.53;;;;;;;;;;6207711;23;20122;-64
2022/10/22 19:12:14;;;;;;;164.52;36.30;;;;;;;;;;6203933;23;20488;-60
2022/10/22 19:14:49;;;;;;;204.30;40.53;;;;;;;;;;6205074;23;20465;-60
2022/10/22 19:17:16;;;;;;;129.10;32.33;;;;;;;;;;6206364;23;20024;-60
2022/10/22 19:19:44;;;;;;;149.32;34.15;;;;;;;;;;6204004;23;20020;-60
2022/10/22 19:22:24;;;;;;;108.63;30.98;;;;;;;;;;6203740;23;20027;-60
2022/10/22 19:24:51;;;;;;;130.93;34.20;;;;;;;;;;6204553;23;20030;-60
2022/10/22 19:27:26;;;;;;;103.78;31.27;;;;;;;;;;6205168;23;20104;-62
2022/10/22 19:29:53;;;;;;;119.65;33.38;;;;;;;;;;6206567;23;20336;-64
2022/10/22 19:32:20;;;;;;;148.18;34.00;;;;;;;;;;6206415;23;20027;-59
2022/10/22 19:34:57;;;;;;;165.40;35.13;;;;;;;;;;6206569;23;20032;-58
2022/10/22 19:37:24;;;;;;;84.63;27.27;;;;;;;;;;6206934;23;20466;-58
2022/10/22 19:39:57;;;;;;;124.05;31.98;;;;;;;;;;6206637;23;20526;-58
2022/10/22 19:42:24;;;;;;;109.53;30.27;;;;;;;;;;6206363;23;20031;-58
2022/10/22 19:44:52;;;;;;;102.07;30.33;;;;;;;;;;6206930;23;20027;-58
2022/10/22 19:47:26;;;;;;;92.53;28.02;;;;;;;;;;6206596;23;20020;-58
2022/10/22 19:49:53;;;;;;;89.05;27.35;;;;;;;;;;6203947;23;20339;-60
2022/10/22 19:52:27;;;;;;;151.98;33.72;;;;;;;;;;6207447;23;20027;-60
2022/10/22 19:54:55;;;;;;;131.38;32.05;;;;;;;;;;6205656;23;20415;-60
2022/10/22 19:57:22;;;;;;;106.65;30.13;;;;;;;;;;6205660;23;20579;-59
2022/10/22 19:59:55;;;;;;;143.88;33.40;;;;;;;;;;6207181;23;20016;-59
2022/10/22 20:02:22;;;;;;;196.60;36.80;;;;;;;;;;6206109;23;20034;-59
2022/10/22 20:04:57;;;;;;;147.75;32.78;;;;;;;;;;6203699;23;20043;-54
2022/10/22 20:07:24;;;;;;;106.03;32.47;;;;;;;;;;6205699;23;20027;-58
2022/10/22 20:09:51;;;;;;;118.22;32.67;;;;;;;;;;6205253;23;20071;-59
2022/10/22 20:12:24;;;;;;;137.35;34.55;;;;;;;;;;6205117;23;20021;-60
2022/10/22 20:14:52;;;;;;;158.73;34.08;;;;;;;;;;6205204;23;20031;-59
2022/10/22 20:17:27;;;;;;;102.18;28.63;;;;;;;;;;6206213;23;20056;-59
2022/10/22 20:20:07;;;;;;;111.90;29.98;;;;;;;;;;6204301;23;20044;-60
2022/10/22 20:22:42;;;;;;;92.45;28.83;;;;;;;;;;6205623;23;20031;-60
2022/10/22 20:25:11;;;;;;;119.53;33.22;;;;;;;;;;6206081;23;20160;-59
2022/10/22 20:27:38;;;;;;;234.23;39.90;;;;;;;;;;6205086;23;20107;-59
2022/10/22 20:30:11;;;;;;;136.32;33.47;;;;;;;;;;6205899;23;20108;-59
2022/10/22 20:32:39;;;;;;;161.90;36.92;;;;;;;;;;6204994;23;20024;-60
2022/10/22 20:35:07;;;;;;;130.85;32.03;;;;;;;;;;6203746;23;20063;-59
2022/10/22 20:37:40;;;;;;;134.85;33.78;;;;;;;;;;6204845;23;20028;-59
2022/10/22 20:40:14;;;;;;;156.45;34.05;;;;;;;;;;6204872;23;20024;-59
2022/10/22 20:42:42;;;;;;;476.98;46.60;;;;;;;;;;6202145;23;20023;-60
2022/10/22 20:45:09;;;;;;;452.92;44.75;;;;;;;;;;6204282;23;20115;-63
2022/10/22 20:47:43;;;;;;;560.20;48.53;;;;;;;;;;6205990;23;20021;-64
2022/10/22 20:50:30;;;;;;;201.35;33.30;;;;;;;;;;6203991;23;20108;-63
2022/10/22 20:53:04;;;;;;;100.07;31.02;;;;;;;;;;6205279;23;20027;-63
2022/10/22 20:55:32;;;;;;;103.47;31.40;;;;;;;;;;6204102;23;20044;-64
2022/10/22 20:57:59;;;;;;;102.13;31.10;;;;;;;;;;6205636;23;20107;-63
2022/10/22 21:00:34;;;;;;;103.93;31.10;;;;;;;;;;6204457;23;20020;-64
2022/10/22 21:03:02;;;;;;;106.45;32.55;;;;;;;;;;6203469;23;20031;-64
2022/10/22 21:05:29;;;;;;;138.20;35.05;;;;;;;;;;6203214;23;20636;-64
2022/10/22 21:08:03;;;;;;;103.70;31.60;;;;;;;;;;6178323;23;20024;-64
2022/10/22 21:10:38;;;;;;;95.72;31.70;;;;;;;;;;6202533;23;20230;-64
2022/10/22 21:13:05;;;;;;;;;;;;;;;;;;6203345;23;20028;-64
2022/10/22 21:15:32;;;;;;;98.05;29.80;;;;;;;;;;6203697;23;19919;-64
2022/10/22 21:18:07;;;;;;;128.75;35.05;;;;;;;;;;6202981;23;20505;-64
2022/10/22 21:20:40;;;;;;;101.20;30.35;;;;;;;;;;6205842;23;20067;-63
2022/10/22 21:23:14;;;;;;;149.68;34.13;;;;;;;;;;6204095;23;20020;-61
2022/10/22 21:25:51;;;;;;;99.63;30.67;;;;;;;;;;6204512;23;20537;-60
2022/10/22 21:28:26;;;;;;;79.55;27.67;;;;;;;;;;6180261;23;20027;-60
2022/10/22 21:30:53;;;;;;;113.07;32.22;;;;;;;;;;6205178;23;20029;-60
2022/10/22 21:33:21;;;;;;;93.18;30.95;;;;;;;;;;6204138;23;20474;-61
2022/10/22 21:35:55;;;;;;;87.28;30.85;;;;;;;;;;6207015;23;20031;-60
2022/10/22 21:38:24;;;;;;;91.68;30.38;;;;;;;;;;6208076;23;20031;-59
2022/10/22 21:40:57;;;;;;;115.40;32.67;;;;;;;;;;6208392;23;20044;-61
2022/10/22 21:43:25;;;;;;;110.25;33.20;;;;;;;;;;6208287;23;20024;-60
2022/10/22 21:46:01;;;;;;;302.92;40.63;;;;;;;;;;6206129;23;20021;-60
2022/10/22 21:48:36;;;;;;;127.90;33.42;;;;;;;;;;6208218;23;20017;-59
2022/10/22 21:51:10;;;;;;;178.95;35.53;;;;;;;;;;6208797;23;20020;-59
2022/10/22 21:53:44;;;;;;;343.45;40.28;;;;;;;;;;6209097;23;20017;-59
2022/10/22 21:56:16;;;;;;;281.45;38.75;;;;;;;;;;6210865;23;20036;-59
2022/10/22 21:58:52;;;;;;;396.48;38.92;;;;;;;;;;6208935;23;20421;-50
2022/10/22 22:01:19;;;;;;;313.98;37.63;;;;;;;;;;6209712;23;20020;-60
2022/10/22 22:03:48;;;;;;;506.92;43.53;;;;;;;;;;6209073;23;20047;-63
2022/10/22 22:06:23;;;;;;;529.13;46.03;;;;;;;;;;6209566;23;20028;-63
2022/10/22 22:08:52;;;;;;;331.88;38.88;;;;;;;;;;6209153;23;20056;-63
2022/10/22 22:11:26;;;;;;;225.57;36.05;;;;;;;;;;6210460;23;20359;-63
2022/10/22 22:13:54;;;;;;;407.25;40.05;;;;;;;;;;6209425;23;20020;-64
2022/10/22 22:16:29;;;;;;;117.28;30.83;;;;;;;;;;6209384;23;20021;-63
2022/10/22 22:19:04;;;;;;;176.27;35.22;;;;;;;;;;6209728;23;20025;-63
2022/10/22 22:21:45;;;;;;;133.48;31.75;;;;;;;;;;6180426;23;20035;-59
2022/10/22 22:24:13;;;;;;;153.48;31.83;;;;;;;;;;6179474;23;20031;-58
2022/10/22 22:26:47;;;;;;;110.40;30.70;;;;;;;;;;6179623;23;20111;-58
2022/10/22 22:29:14;;;;;;;144.60;32.88;;;;;;;;;;6180272;23;20096;-59
2022/10/22 22:31:42;;;;;;;115.63;32.28;;;;;;;;;;6180700;23;20362;-59
2022/10/22 22:34:18;;;;;;;128.27;31.88;;;;;;;;;;6179665;23;20021;-59
2022/10/22 22:36:48;;;;;;;86.72;27.95;;;;;;;;;;6180597;23;20021;-59
2022/10/22 22:39:28;;;;;;;152.63;33.47;;;;;;;;;;6179735;23;20021;-59
2022/10/22 22:41:56;;;;;;;129.15;31.98;;;;;;;;;;6180705;23;20350;-60
2022/10/22 22:44:30;;;;;;;107.57;31.20;;;;;;;;;;6180068;23;20098;-60
2022/10/22 22:46:58;;;;;;;96.25;29.48;;;;;;;;;;6179367;23;20347;-60
2022/10/22 22:49:25;;;;;;;77.50;28.58;;;;;;;;;;6179841;23;20031;-60
2022/10/22 22:51:58;;;;;;;66.18;26.13;;;;;;;;;;6180709;23;20023;-60
2022/10/22 22:54:26;;;;;;;67.40;25.95;;;;;;;;;;6179589;23;20032;-60
2022/10/22 22:56:59;;;;;;;53.15;23.08;;;;;;;;;;6179554;23;20471;-63
2022/10/22 22:59:27;;;;;;;51.65;23.15;;;;;;;;;;6179833;23;20358;-63
2022/10/22 23:01:54;;;;;;;60.97;26.05;;;;;;;;;;6179785;23;20032;-62
2022/10/22 23:04:29;;;;;;;95.28;30.10;;;;;;;;;;6178218;23;20025;-61
2022/10/22 23:06:56;;;;;;;62.00;24.23;;;;;;;;;;6180623;23;20029;-62
2022/10/22 23:09:29;;;;;;;64.22;25.63;;;;;;;;;;6180447;23;20111;-61
2022/10/22 23:11:57;;;;;;;51.08;23.80;;;;;;;;;;6178962;23;20021;-62
2022/10/22 23:14:31;;;;;;;109.03;30.17;;;;;;;;;;6179224;23;20021;-61
2022/10/22 23:16:58;;;;;;;145.77;30.60;;;;;;;;;;6177842;23;20328;-60
2022/10/22 23:19:38;;;;;;;133.60;32.35;;;;;;;;;;6183713;23;20377;-61
2022/10/22 23:22:12;;;;;;;55.60;24.23;;;;;;;;;;6209472;23;20108;-61
2022/10/22 23:24:46;;;;;;;81.30;26.95;;;;;;;;;;6208432;23;20497;-61
2022/10/22 23:27:14;;;;;;;84.95;27.67;;;;;;;;;;6208565;23;20402;-62
2022/10/22 23:29:56;;;;;;;59.08;23.30;;;;;;;;;;6210392;23;20027;-62
2022/10/22 23:32:23;;;;;;;63.72;25.75;;;;;;;;;;6210176;23;20020;-61